sensor_id;sensor_type;location;lat;lon;timestamp;temperature;humidity
11079;DHT22;5592;49.234;7.268;2023-03-01T00:01:36;-0.90;99.90
11079;DHT22;5592;49.234;7.268;2023-03-01T00:04:02;-1.00;99.90
11079;DHT22;5592;49.234;7.268;2023-03-01T00:06:28;-1.00;99.90
11079;DHT22;5592;49.234;7.268;2023-03-01T00:08:54;-1.00;99.90
11079;DHT22;5592;49.234;7.268;2023-03-01T00:11:25;-1.10;99.90
11079;DHT22;5592;49.234;7.268;2023-03-01T00:13:54;-1.10;99.90
11079;DHT22;5592;49.234;7.268;2023-03-01T00:16:26;-1.10;99.90
11079;DHT22;5592;49.234;7.268;2023-03-01T00:18:54;-1.10;99.90
11079;DHT22;5592;49.234;7.268;2023-03-01T00:21:21;-1.00;99.90
11079;DHT22;5592;49.234;7.268;2023-03-01T00:23:48;-1.10;99.90
11079;DHT22;5592;49.234;7.268;2023-03-01T00:26:15;-1.00;99.90
11079;DHT22;5592;49.234;7.268;2023-03-01T00:28:41;-1.10;99.90
11079;DHT22;5592;49.234;7.268;2023-03-01T00:31:18;-1.10;99.90
11079;DHT22;5592;49.234;7.268;2023-03-01T00:33:44;-1.10;99.90
11079;DHT22;5592;49.234;7.268;2023-03-01T00:36:11;-1.10;99.90
11079;DHT22;5592;49.234;7.268;2023-03-01T00:38:39;-1.10;99.90
11079;DHT22;5592;49.234;7.268;2023-03-01T00:41:06;-1.30;99.90
11079;DHT22;5592;49.234;7.268;2023-03-01T00:43:32;-1.40;99.90
11079;DHT22;5592;49.234;7.268;2023-03-01T00:46:03;-1.50;99.90
11079;DHT22;5592;49.234;7.268;2023-03-01T00:48:29;-1.60;99.90
11079;DHT22;5592;49.234;7.268;2023-03-01T00:50:54;-1.80;99.90
11079;DHT22;5592;49.234;7.268;2023-03-01T00:53:20;-1.90;99.90
11079;DHT22;5592;49.234;7.268;2023-03-01T00:55:46;-2.00;99.90
11079;DHT22;5592;49.234;7.268;2023-03-01T00:58:11;-2.20;99.90
11079;DHT22;5592;49.234;7.268;2023-03-01T01:00:37;-2.30;99.90
11079;DHT22;5592;49.234;7.268;2023-03-01T01:03:02;-2.50;99.90
11079;DHT22;5592;49.234;7.268;2023-03-01T01:05:28;-2.60;99.90
11079;DHT22;5592;49.234;7.268;2023-03-01T01:07:53;-2.70;99.90
11079;DHT22;5592;49.234;7.268;2023-03-01T01:10:19;-2.80;99.90
11079;DHT22;5592;49.234;7.268;2023-03-01T01:12:45;-3.00;99.90
11079;DHT22;5592;49.234;7.268;2023-03-01T01:15:12;-3.00;99.90
11079;DHT22;5592;49.234;7.268;2023-03-01T01:17:39;-2.90;99.90
11079;DHT22;5592;49.234;7.268;2023-03-01T01:20:06;-2.80;99.90
11079;DHT22;5592;49.234;7.268;2023-03-01T01:22:31;-2.70;99.90
11079;DHT22;5592;49.234;7.268;2023-03-01T01:24:57;-2.60;99.90
11079;DHT22;5592;49.234;7.268;2023-03-01T01:27:23;-2.60;99.90
11079;DHT22;5592;49.234;7.268;2023-03-01T01:29:48;-2.60;99.90
11079;DHT22;5592;49.234;7.268;2023-03-01T01:32:14;-2.60;99.90
11079;DHT22;5592;49.234;7.268;2023-03-01T01:34:39;-2.50;99.90
11079;DHT22;5592;49.234;7.268;2023-03-01T01:37:05;-2.50;99.90
11079;DHT22;5592;49.234;7.268;2023-03-01T01:39:34;-2.50;99.90
11079;DHT22;5592;49.234;7.268;2023-03-01T01:42:00;-2.40;99.90
11079;DHT22;5592;49.234;7.268;2023-03-01T01:44:27;-2.30;99.90
11079;DHT22;5592;49.234;7.268;2023-03-01T01:47:02;-2.20;99.90
11079;DHT22;5592;49.234;7.268;2023-03-01T01:49:51;-2.10;99.90
11079;DHT22;5592;49.234;7.268;2023-03-01T01:52:36;-2.00;99.90
11079;DHT22;5592;49.234;7.268;2023-03-01T01:55:13;-2.00;99.90
11079;DHT22;5592;49.234;7.268;2023-03-01T01:57:45;-2.00;99.90
11079;DHT22;5592;49.234;7.268;2023-03-01T02:00:16;-2.00;99.90
11079;DHT22;5592;49.234;7.268;2023-03-01T02:02:45;-2.00;99.90
11079;DHT22;5592;49.234;7.268;2023-03-01T02:05:42;-2.00;99.90
11079;DHT22;5592;49.234;7.268;2023-03-01T02:08:12;-2.00;99.90
11079;DHT22;5592;49.234;7.268;2023-03-01T02:10:39;-2.10;99.90
11079;DHT22;5592;49.234;7.268;2023-03-01T02:13:06;-2.10;99.90
11079;DHT22;5592;49.234;7.268;2023-03-01T02:15:34;-2.30;99.90
11079;DHT22;5592;49.234;7.268;2023-03-01T02:18:01;-2.50;99.90
11079;DHT22;5592;49.234;7.268;2023-03-01T02:23:22;-2.60;99.90
11079;DHT22;5592;49.234;7.268;2023-03-01T02:28:36;-2.40;99.90
11079;DHT22;5592;49.234;7.268;2023-03-01T02:31:04;-2.40;99.90
11079;DHT22;5592;49.234;7.268;2023-03-01T02:33:49;-2.30;99.90
11079;DHT22;5592;49.234;7.268;2023-03-01T02:36:30;-2.30;99.90
11079;DHT22;5592;49.234;7.268;2023-03-01T02:38:59;-2.40;99.90
11079;DHT22;5592;49.234;7.268;2023-03-01T02:41:29;-2.50;99.90
11079;DHT22;5592;49.234;7.268;2023-03-01T02:43:56;-2.60;99.90
11079;DHT22;5592;49.234;7.268;2023-03-01T02:46:24;-2.60;99.90
11079;DHT22;5592;49.234;7.268;2023-03-01T02:48:55;-2.70;99.90
11079;DHT22;5592;49.234;7.268;2023-03-01T02:51:42;-2.70;99.90
11079;DHT22;5592;49.234;7.268;2023-03-01T02:54:33;-2.80;99.90
11079;DHT22;5592;49.234;7.268;2023-03-01T02:57:03;-2.80;99.90
11079;DHT22;5592;49.234;7.268;2023-03-01T02:59:31;-2.80;99.90
11079;DHT22;5592;49.234;7.268;2023-03-01T03:02:00;-2.90;99.90
11079;DHT22;5592;49.234;7.268;2023-03-01T03:04:26;-2.90;99.90
11079;DHT22;5592;49.234;7.268;2023-03-01T03:06:52;-3.00;99.90
11079;DHT22;5592;49.234;7.268;2023-03-01T03:09:20;-3.00;99.90
11079;DHT22;5592;49.234;7.268;2023-03-01T03:11:46;-2.90;99.90
11079;DHT22;5592;49.234;7.268;2023-03-01T03:14:14;-3.00;99.90
11079;DHT22;5592;49.234;7.268;2023-03-01T03:16:45;-3.00;99.90
11079;DHT22;5592;49.234;7.268;2023-03-01T03:19:11;-3.10;99.90
11079;DHT22;5592;49.234;7.268;2023-03-01T03:21:37;-3.10;99.90
11079;DHT22;5592;49.234;7.268;2023-03-01T03:24:03;-3.00;99.90
11079;DHT22;5592;49.234;7.268;2023-03-01T03:26:29;-2.90;99.90
11079;DHT22;5592;49.234;7.268;2023-03-01T03:28:55;-2.90;99.90
11079;DHT22;5592;49.234;7.268;2023-03-01T03:31:20;-3.10;99.90
11079;DHT22;5592;49.234;7.268;2023-03-01T03:33:46;-3.10;99.90
11079;DHT22;5592;49.234;7.268;2023-03-01T03:36:21;-3.00;99.90
11079;DHT22;5592;49.234;7.268;2023-03-01T03:38:48;-2.90;99.90
11079;DHT22;5592;49.234;7.268;2023-03-01T03:41:14;-2.80;99.90
11079;DHT22;5592;49.234;7.268;2023-03-01T03:43:41;-2.80;99.90
11079;DHT22;5592;49.234;7.268;2023-03-01T03:46:09;-2.80;99.90
11079;DHT22;5592;49.234;7.268;2023-03-01T03:48:43;-2.80;99.90
11079;DHT22;5592;49.234;7.268;2023-03-01T03:51:14;-2.70;99.90
11079;DHT22;5592;49.234;7.268;2023-03-01T03:53:40;-2.70;99.90
11079;DHT22;5592;49.234;7.268;2023-03-01T03:56:07;-2.60;99.90
11079;DHT22;5592;49.234;7.268;2023-03-01T03:58:33;-2.60;99.90
11079;DHT22;5592;49.234;7.268;2023-03-01T04:00:59;-2.70;99.90
11079;DHT22;5592;49.234;7.268;2023-03-01T04:03:26;-2.90;99.90
11079;DHT22;5592;49.234;7.268;2023-03-01T04:05:53;-2.90;99.90
11079;DHT22;5592;49.234;7.268;2023-03-01T04:08:22;-3.00;99.90
11079;DHT22;5592;49.234;7.268;2023-03-01T04:10:50;-3.20;99.90
11079;DHT22;5592;49.234;7.268;2023-03-01T04:13:18;-3.40;99.90
11079;DHT22;5592;49.234;7.268;2023-03-01T04:15:46;-3.50;99.90
11079;DHT22;5592;49.234;7.268;2023-03-01T04:18:14;-3.70;99.90
11079;DHT22;5592;49.234;7.268;2023-03-01T04:20:40;-3.80;99.90
11079;DHT22;5592;49.234;7.268;2023-03-01T04:23:17;-4.00;99.90
11079;DHT22;5592;49.234;7.268;2023-03-01T04:28:35;-4.00;99.90
11079;DHT22;5592;49.234;7.268;2023-03-01T04:31:06;-3.80;99.90
11079;DHT22;5592;49.234;7.268;2023-03-01T04:33:50;-3.80;99.90
11079;DHT22;5592;49.234;7.268;2023-03-01T04:36:22;-3.80;99.90
11079;DHT22;5592;49.234;7.268;2023-03-01T04:38:48;-3.90;99.90
11079;DHT22;5592;49.234;7.268;2023-03-01T04:41:15;-4.00;99.90
11079;DHT22;5592;49.234;7.268;2023-03-01T04:43:41;-3.90;99.90
11079;DHT22;5592;49.234;7.268;2023-03-01T04:46:10;-3.90;99.90
11079;DHT22;5592;49.234;7.268;2023-03-01T04:48:37;-3.90;99.90
11079;DHT22;5592;49.234;7.268;2023-03-01T04:51:03;-4.00;99.90
11079;DHT22;5592;49.234;7.268;2023-03-01T04:53:30;-4.10;99.90
11079;DHT22;5592;49.234;7.268;2023-03-01T04:55:59;-4.20;99.90
11079;DHT22;5592;49.234;7.268;2023-03-01T04:58:25;-4.20;99.90
11079;DHT22;5592;49.234;7.268;2023-03-01T05:00:52;-4.10;99.90
11079;DHT22;5592;49.234;7.268;2023-03-01T05:03:18;-4.20;99.90
11079;DHT22;5592;49.234;7.268;2023-03-01T05:05:49;-4.20;99.90
11079;DHT22;5592;49.234;7.268;2023-03-01T05:08:15;-4.10;99.90
11079;DHT22;5592;49.234;7.268;2023-03-01T05:10:52;-3.90;99.90
11079;DHT22;5592;49.234;7.268;2023-03-01T05:13:19;-3.80;99.90
11079;DHT22;5592;49.234;7.268;2023-03-01T05:15:59;-3.60;99.90
11079;DHT22;5592;49.234;7.268;2023-03-01T05:18:26;-3.40;99.90
11079;DHT22;5592;49.234;7.268;2023-03-01T05:21:00;-3.30;99.90
11079;DHT22;5592;49.234;7.268;2023-03-01T05:23:26;-3.30;99.90
11079;DHT22;5592;49.234;7.268;2023-03-01T05:25:52;-3.30;99.90
11079;DHT22;5592;49.234;7.268;2023-03-01T05:28:19;-3.30;99.90
11079;DHT22;5592;49.234;7.268;2023-03-01T05:30:46;-3.30;99.90
11079;DHT22;5592;49.234;7.268;2023-03-01T05:33:11;-3.30;99.90
11079;DHT22;5592;49.234;7.268;2023-03-01T05:35:41;-3.20;99.90
11079;DHT22;5592;49.234;7.268;2023-03-01T05:38:07;-3.30;99.90
11079;DHT22;5592;49.234;7.268;2023-03-01T05:40:34;-3.30;99.90
11079;DHT22;5592;49.234;7.268;2023-03-01T05:43:00;-3.40;99.90
11079;DHT22;5592;49.234;7.268;2023-03-01T05:45:27;-3.40;99.90
11079;DHT22;5592;49.234;7.268;2023-03-01T05:47:53;-3.50;99.90
11079;DHT22;5592;49.234;7.268;2023-03-01T05:50:23;-3.50;99.90
11079;DHT22;5592;49.234;7.268;2023-03-01T05:52:57;-3.60;99.90
11079;DHT22;5592;49.234;7.268;2023-03-01T05:55:23;-3.70;99.90
11079;DHT22;5592;49.234;7.268;2023-03-01T05:57:49;-3.70;99.90
11079;DHT22;5592;49.234;7.268;2023-03-01T06:00:20;-3.70;99.90
11079;DHT22;5592;49.234;7.268;2023-03-01T06:02:47;-3.80;99.90
11079;DHT22;5592;49.234;7.268;2023-03-01T06:05:13;-3.80;99.90
11079;DHT22;5592;49.234;7.268;2023-03-01T06:07:39;-3.90;99.90
11079;DHT22;5592;49.234;7.268;2023-03-01T06:10:07;-3.90;99.90
11079;DHT22;5592;49.234;7.268;2023-03-01T06:12:35;-3.90;99.90
11079;DHT22;5592;49.234;7.268;2023-03-01T06:15:01;-4.00;99.90
11079;DHT22;5592;49.234;7.268;2023-03-01T06:17:30;-3.90;99.90
11079;DHT22;5592;49.234;7.268;2023-03-01T06:19:56;-3.90;99.90
11079;DHT22;5592;49.234;7.268;2023-03-01T06:22:22;-3.70;99.90
11079;DHT22;5592;49.234;7.268;2023-03-01T06:24:48;-3.50;99.90
11079;DHT22;5592;49.234;7.268;2023-03-01T06:27:13;-3.40;99.90
11079;DHT22;5592;49.234;7.268;2023-03-01T06:29:39;-3.20;99.90
11079;DHT22;5592;49.234;7.268;2023-03-01T06:32:08;-3.20;99.90
11079;DHT22;5592;49.234;7.268;2023-03-01T06:34:34;-3.10;99.90
11079;DHT22;5592;49.234;7.268;2023-03-01T06:37:02;-3.10;99.90
11079;DHT22;5592;49.234;7.268;2023-03-01T06:39:31;-3.10;99.90
11079;DHT22;5592;49.234;7.268;2023-03-01T06:41:56;-3.10;99.90
11079;DHT22;5592;49.234;7.268;2023-03-01T06:44:22;-3.00;99.90
11079;DHT22;5592;49.234;7.268;2023-03-01T06:46:48;-2.90;99.90
11079;DHT22;5592;49.234;7.268;2023-03-01T06:49:13;-2.40;99.90
11079;DHT22;5592;49.234;7.268;2023-03-01T06:51:44;-1.80;99.90
11079;DHT22;5592;49.234;7.268;2023-03-01T06:54:10;-1.00;99.90
11079;DHT22;5592;49.234;7.268;2023-03-01T06:56:35;-0.40;99.90
11079;DHT22;5592;49.234;7.268;2023-03-01T06:59:03;0.00;99.90
11079;DHT22;5592;49.234;7.268;2023-03-01T07:01:29;0.70;99.90
11079;DHT22;5592;49.234;7.268;2023-03-01T07:03:55;1.20;99.90
11079;DHT22;5592;49.234;7.268;2023-03-01T07:06:21;1.80;99.90
11079;DHT22;5592;49.234;7.268;2023-03-01T07:08:50;2.40;99.90
11079;DHT22;5592;49.234;7.268;2023-03-01T07:11:16;2.70;99.90
11079;DHT22;5592;49.234;7.268;2023-03-01T07:13:41;3.20;99.90
11079;DHT22;5592;49.234;7.268;2023-03-01T07:16:08;3.40;99.90
11079;DHT22;5592;49.234;7.268;2023-03-01T07:18:33;3.40;99.90
11079;DHT22;5592;49.234;7.268;2023-03-01T07:21:07;3.40;99.90
11079;DHT22;5592;49.234;7.268;2023-03-01T07:23:35;3.60;99.90
11079;DHT22;5592;49.234;7.268;2023-03-01T07:26:00;3.60;99.90
11079;DHT22;5592;49.234;7.268;2023-03-01T07:28:26;3.50;99.90
11079;DHT22;5592;49.234;7.268;2023-03-01T07:30:52;3.60;99.90
11079;DHT22;5592;49.234;7.268;2023-03-01T07:33:18;3.90;99.90
11079;DHT22;5592;49.234;7.268;2023-03-01T07:35:43;4.30;99.90
11079;DHT22;5592;49.234;7.268;2023-03-01T07:38:09;4.90;99.90
11079;DHT22;5592;49.234;7.268;2023-03-01T07:40:35;4.90;99.90
11079;DHT22;5592;49.234;7.268;2023-03-01T07:43:00;5.10;99.90
11079;DHT22;5592;49.234;7.268;2023-03-01T07:45:27;5.40;99.90
11079;DHT22;5592;49.234;7.268;2023-03-01T07:47:54;5.60;99.90
11079;DHT22;5592;49.234;7.268;2023-03-01T07:50:20;6.10;99.90
11079;DHT22;5592;49.234;7.268;2023-03-01T07:52:47;6.40;99.90
11079;DHT22;5592;49.234;7.268;2023-03-01T07:55:13;6.60;99.90
11079;DHT22;5592;49.234;7.268;2023-03-01T07:57:40;6.60;99.90
11079;DHT22;5592;49.234;7.268;2023-03-01T08:00:07;6.60;99.90
11079;DHT22;5592;49.234;7.268;2023-03-01T08:02:33;6.60;99.90
11079;DHT22;5592;49.234;7.268;2023-03-01T08:04:58;6.60;99.90
11079;DHT22;5592;49.234;7.268;2023-03-01T08:07:27;6.70;99.90
11079;DHT22;5592;49.234;7.268;2023-03-01T08:09:53;7.10;99.90
11079;DHT22;5592;49.234;7.268;2023-03-01T08:12:20;7.70;99.90
11079;DHT22;5592;49.234;7.268;2023-03-01T08:14:46;8.70;99.90
11079;DHT22;5592;49.234;7.268;2023-03-01T08:17:15;9.50;99.90
11079;DHT22;5592;49.234;7.268;2023-03-01T08:19:44;10.30;95.30
11079;DHT22;5592;49.234;7.268;2023-03-01T08:22:18;11.40;91.50
11079;DHT22;5592;49.234;7.268;2023-03-01T08:24:47;11.70;85.70
11079;DHT22;5592;49.234;7.268;2023-03-01T08:27:16;12.10;82.60
11079;DHT22;5592;49.234;7.268;2023-03-01T08:29:42;11.80;80.00
11079;DHT22;5592;49.234;7.268;2023-03-01T08:32:08;11.80;82.30
11079;DHT22;5592;49.234;7.268;2023-03-01T08:34:33;12.20;80.10
11079;DHT22;5592;49.234;7.268;2023-03-01T08:37:01;12.80;78.00
11079;DHT22;5592;49.234;7.268;2023-03-01T08:39:27;13.40;74.60
11079;DHT22;5592;49.234;7.268;2023-03-01T08:41:53;13.80;73.90
11079;DHT22;5592;49.234;7.268;2023-03-01T08:44:19;13.60;70.80
11079;DHT22;5592;49.234;7.268;2023-03-01T08:46:47;13.60;70.10
11079;DHT22;5592;49.234;7.268;2023-03-01T08:49:17;13.30;70.70
11079;DHT22;5592;49.234;7.268;2023-03-01T08:51:44;13.40;70.10
11079;DHT22;5592;49.234;7.268;2023-03-01T08:54:12;13.60;68.20
11079;DHT22;5592;49.234;7.268;2023-03-01T08:56:38;13.80;68.80
11079;DHT22;5592;49.234;7.268;2023-03-01T08:59:04;13.80;68.40
11079;DHT22;5592;49.234;7.268;2023-03-01T09:01:30;14.30;67.20
11079;DHT22;5592;49.234;7.268;2023-03-01T09:03:55;14.50;67.80
11079;DHT22;5592;49.234;7.268;2023-03-01T09:06:24;14.70;65.10
11079;DHT22;5592;49.234;7.268;2023-03-01T09:08:53;14.50;65.40
11079;DHT22;5592;49.234;7.268;2023-03-01T09:11:21;14.70;64.50
11079;DHT22;5592;49.234;7.268;2023-03-01T09:13:48;14.60;64.30
11079;DHT22;5592;49.234;7.268;2023-03-01T09:16:15;14.80;64.60
11079;DHT22;5592;49.234;7.268;2023-03-01T09:18:43;14.80;62.10
11079;DHT22;5592;49.234;7.268;2023-03-01T09:21:11;15.00;63.20
11079;DHT22;5592;49.234;7.268;2023-03-01T09:23:39;14.80;62.10
11079;DHT22;5592;49.234;7.268;2023-03-01T09:26:16;14.90;63.10
11079;DHT22;5592;49.234;7.268;2023-03-01T09:28:45;15.30;62.00
11079;DHT22;5592;49.234;7.268;2023-03-01T09:31:10;15.00;63.00
11079;DHT22;5592;49.234;7.268;2023-03-01T09:33:39;14.80;63.00
11079;DHT22;5592;49.234;7.268;2023-03-01T09:36:22;14.70;62.90
11079;DHT22;5592;49.234;7.268;2023-03-01T09:38:51;15.20;63.10
11079;DHT22;5592;49.234;7.268;2023-03-01T09:41:48;15.10;63.10
11079;DHT22;5592;49.234;7.268;2023-03-01T09:44:57;15.40;62.70
11079;DHT22;5592;49.234;7.268;2023-03-01T09:47:32;15.50;61.80
11079;DHT22;5592;49.234;7.268;2023-03-01T09:50:18;15.30;59.40
11079;DHT22;5592;49.234;7.268;2023-03-01T09:53:04;15.10;61.50
11079;DHT22;5592;49.234;7.268;2023-03-01T09:55:36;15.50;62.00
11079;DHT22;5592;49.234;7.268;2023-03-01T10:00:50;15.50;59.40
11079;DHT22;5592;49.234;7.268;2023-03-01T10:03:35;15.90;58.50
11079;DHT22;5592;49.234;7.268;2023-03-01T10:06:06;15.60;58.20
11079;DHT22;5592;49.234;7.268;2023-03-01T10:09:05;15.00;58.00
11079;DHT22;5592;49.234;7.268;2023-03-01T10:11:38;14.60;60.70
11079;DHT22;5592;49.234;7.268;2023-03-01T10:16:51;14.30;59.70
11079;DHT22;5592;49.234;7.268;2023-03-01T10:19:27;14.40;58.70
11079;DHT22;5592;49.234;7.268;2023-03-01T10:22:00;14.30;59.60
11079;DHT22;5592;49.234;7.268;2023-03-01T10:24:31;14.00;59.50
11079;DHT22;5592;49.234;7.268;2023-03-01T10:27:09;13.70;59.40
11079;DHT22;5592;49.234;7.268;2023-03-01T10:29:44;13.60;59.40
11079;DHT22;5592;49.234;7.268;2023-03-01T10:32:11;13.50;60.00
11079;DHT22;5592;49.234;7.268;2023-03-01T10:34:37;13.50;61.60
11079;DHT22;5592;49.234;7.268;2023-03-01T10:37:18;13.50;60.70
11079;DHT22;5592;49.234;7.268;2023-03-01T10:40:04;13.00;62.30
11079;DHT22;5592;49.234;7.268;2023-03-01T10:42:48;12.90;62.60
11079;DHT22;5592;49.234;7.268;2023-03-01T10:45:32;12.90;64.10
11079;DHT22;5592;49.234;7.268;2023-03-01T10:48:17;13.10;64.40
11079;DHT22;5592;49.234;7.268;2023-03-01T10:50:46;13.10;61.10
11079;DHT22;5592;49.234;7.268;2023-03-01T10:53:36;13.10;60.60
11079;DHT22;5592;49.234;7.268;2023-03-01T10:56:14;13.10;61.70
11079;DHT22;5592;49.234;7.268;2023-03-01T10:59:02;13.30;64.10
11079;DHT22;5592;49.234;7.268;2023-03-01T11:01:35;13.20;60.70
11079;DHT22;5592;49.234;7.268;2023-03-01T11:06:37;12.20;61.50
11079;DHT22;5592;49.234;7.268;2023-03-01T11:09:21;12.20;63.40
11079;DHT22;5592;49.234;7.268;2023-03-01T11:12:00;12.30;63.20
11079;DHT22;5592;49.234;7.268;2023-03-01T11:14:46;11.70;63.10
11079;DHT22;5592;49.234;7.268;2023-03-01T11:17:31;11.40;62.90
11079;DHT22;5592;49.234;7.268;2023-03-01T11:22:55;10.90;63.50
11079;DHT22;5592;49.234;7.268;2023-03-01T11:25:26;10.70;64.60
11079;DHT22;5592;49.234;7.268;2023-03-01T11:27:54;10.70;67.30
11079;DHT22;5592;49.234;7.268;2023-03-01T11:30:37;11.20;67.70
11079;DHT22;5592;49.234;7.268;2023-03-01T11:35:57;12.20;63.70
11079;DHT22;5592;49.234;7.268;2023-03-01T11:38:28;11.90;64.40
11079;DHT22;5592;49.234;7.268;2023-03-01T11:41:32;11.60;64.90
11079;DHT22;5592;49.234;7.268;2023-03-01T11:49:30;10.30;65.60
11079;DHT22;5592;49.234;7.268;2023-03-01T12:03:25;8.30;73.50
11079;DHT22;5592;49.234;7.268;2023-03-01T12:08:35;8.00;74.30
11079;DHT22;5592;49.234;7.268;2023-03-01T12:11:29;8.00;75.80
11079;DHT22;5592;49.234;7.268;2023-03-01T12:22:28;8.00;79.80
11079;DHT22;5592;49.234;7.268;2023-03-01T12:42:45;8.00;82.60
11079;DHT22;5592;49.234;7.268;2023-03-01T12:50:44;7.80;81.90
11079;DHT22;5592;49.234;7.268;2023-03-01T12:53:30;7.60;83.40
11079;DHT22;5592;49.234;7.268;2023-03-01T12:56:23;7.40;82.70
11079;DHT22;5592;49.234;7.268;2023-03-01T13:02:10;7.10;87.00
11079;DHT22;5592;49.234;7.268;2023-03-01T13:05:00;7.30;90.40
11079;DHT22;5592;49.234;7.268;2023-03-01T13:07:44;7.40;88.10
11079;DHT22;5592;49.234;7.268;2023-03-01T13:13:23;7.30;89.50
11079;DHT22;5592;49.234;7.268;2023-03-01T13:15:47;7.20;90.70
11079;DHT22;5592;49.234;7.268;2023-03-01T13:20:45;7.20;91.40
11079;DHT22;5592;49.234;7.268;2023-03-01T13:33:58;7.00;93.50
11079;DHT22;5592;49.234;7.268;2023-03-01T13:50:01;6.80;95.90
11079;DHT22;5592;49.234;7.268;2023-03-01T13:52:38;6.80;96.90
11079;DHT22;5592;49.234;7.268;2023-03-01T13:57:37;6.90;97.00
11079;DHT22;5592;49.234;7.268;2023-03-01T14:00:05;6.80;97.00
11079;DHT22;5592;49.234;7.268;2023-03-01T14:02:31;6.90;97.60
11079;DHT22;5592;49.234;7.268;2023-03-01T14:05:00;7.00;97.50
11079;DHT22;5592;49.234;7.268;2023-03-01T14:07:32;7.10;97.80
11079;DHT22;5592;49.234;7.268;2023-03-01T14:10:01;7.10;96.60
11079;DHT22;5592;49.234;7.268;2023-03-01T14:20:23;7.20;96.50
11079;DHT22;5592;49.234;7.268;2023-03-01T14:22:52;7.10;96.90
11079;DHT22;5592;49.234;7.268;2023-03-01T14:25:33;7.10;96.50
11079;DHT22;5592;49.234;7.268;2023-03-01T14:30:37;7.10;97.90
11079;DHT22;5592;49.234;7.268;2023-03-01T14:33:15;7.00;97.60
11079;DHT22;5592;49.234;7.268;2023-03-01T14:35:42;7.00;97.10
11079;DHT22;5592;49.234;7.268;2023-03-01T14:38:34;7.00;97.90
11079;DHT22;5592;49.234;7.268;2023-03-01T14:41:06;7.00;98.30
11079;DHT22;5592;49.234;7.268;2023-03-01T14:43:33;7.00;97.70
11079;DHT22;5592;49.234;7.268;2023-03-01T14:46:00;7.00;97.90
11079;DHT22;5592;49.234;7.268;2023-03-01T14:48:28;6.90;98.30
11079;DHT22;5592;49.234;7.268;2023-03-01T14:50:54;6.90;98.30
11079;DHT22;5592;49.234;7.268;2023-03-01T14:53:24;7.00;98.40
11079;DHT22;5592;49.234;7.268;2023-03-01T14:55:55;7.00;98.70
11079;DHT22;5592;49.234;7.268;2023-03-01T14:58:24;7.00;98.20
11079;DHT22;5592;49.234;7.268;2023-03-01T15:00:56;7.00;98.90
11079;DHT22;5592;49.234;7.268;2023-03-01T15:03:36;7.10;98.90
11079;DHT22;5592;49.234;7.268;2023-03-01T15:06:04;7.10;97.60
11079;DHT22;5592;49.234;7.268;2023-03-01T15:08:33;7.00;99.20
11079;DHT22;5592;49.234;7.268;2023-03-01T15:11:04;7.00;98.10
11079;DHT22;5592;49.234;7.268;2023-03-01T15:13:32;6.90;98.50
11079;DHT22;5592;49.234;7.268;2023-03-01T15:18:34;6.90;98.30
11079;DHT22;5592;49.234;7.268;2023-03-01T15:21:14;6.80;98.90
11079;DHT22;5592;49.234;7.268;2023-03-01T15:23:40;6.90;99.20
11079;DHT22;5592;49.234;7.268;2023-03-01T15:26:29;6.90;99.50
11079;DHT22;5592;49.234;7.268;2023-03-01T15:28:56;6.80;99.20
11079;DHT22;5592;49.234;7.268;2023-03-01T15:31:35;6.80;99.90
11079;DHT22;5592;49.234;7.268;2023-03-01T15:34:25;6.70;99.90
11079;DHT22;5592;49.234;7.268;2023-03-01T15:36:52;6.70;99.90
11079;DHT22;5592;49.234;7.268;2023-03-01T15:39:40;6.70;99.90
11079;DHT22;5592;49.234;7.268;2023-03-01T15:42:13;6.80;99.90
11079;DHT22;5592;49.234;7.268;2023-03-01T15:45:31;6.80;99.90
11079;DHT22;5592;49.234;7.268;2023-03-01T15:48:04;6.80;99.90
11079;DHT22;5592;49.234;7.268;2023-03-01T15:50:33;6.70;99.90
11079;DHT22;5592;49.234;7.268;2023-03-01T15:53:00;6.70;99.90
11079;DHT22;5592;49.234;7.268;2023-03-01T15:55:28;6.60;99.90
11079;DHT22;5592;49.234;7.268;2023-03-01T15:58:12;6.60;99.90
11079;DHT22;5592;49.234;7.268;2023-03-01T16:00:41;6.60;99.90
11079;DHT22;5592;49.234;7.268;2023-03-01T16:03:08;6.60;99.60
11079;DHT22;5592;49.234;7.268;2023-03-01T16:05:37;6.60;99.10
11079;DHT22;5592;49.234;7.268;2023-03-01T16:08:04;6.60;99.40
11079;DHT22;5592;49.234;7.268;2023-03-01T16:10:31;6.50;98.90
11079;DHT22;5592;49.234;7.268;2023-03-01T16:12:57;6.50;99.30
11079;DHT22;5592;49.234;7.268;2023-03-01T16:15:29;6.50;98.50
11079;DHT22;5592;49.234;7.268;2023-03-01T16:17:55;6.50;97.90
11079;DHT22;5592;49.234;7.268;2023-03-01T16:20:21;6.50;98.70
11079;DHT22;5592;49.234;7.268;2023-03-01T16:22:47;6.40;99.10
11079;DHT22;5592;49.234;7.268;2023-03-01T16:25:15;6.40;97.80
11079;DHT22;5592;49.234;7.268;2023-03-01T16:27:46;6.30;98.30
11079;DHT22;5592;49.234;7.268;2023-03-01T16:30:18;6.30;98.00
11079;DHT22;5592;49.234;7.268;2023-03-01T16:32:45;6.30;98.10
11079;DHT22;5592;49.234;7.268;2023-03-01T16:35:13;6.30;97.70
11079;DHT22;5592;49.234;7.268;2023-03-01T16:37:39;6.20;97.30
11079;DHT22;5592;49.234;7.268;2023-03-01T16:40:07;6.20;97.80
11079;DHT22;5592;49.234;7.268;2023-03-01T16:42:37;6.10;98.20
11079;DHT22;5592;49.234;7.268;2023-03-01T16:45:03;6.10;97.30
11079;DHT22;5592;49.234;7.268;2023-03-01T16:47:29;6.00;97.10
11079;DHT22;5592;49.234;7.268;2023-03-01T16:49:55;6.00;97.30
11079;DHT22;5592;49.234;7.268;2023-03-01T16:52:21;6.00;97.20
11079;DHT22;5592;49.234;7.268;2023-03-01T16:54:47;6.00;97.30
11079;DHT22;5592;49.234;7.268;2023-03-01T16:57:13;5.90;97.50
11079;DHT22;5592;49.234;7.268;2023-03-01T16:59:39;5.90;97.80
11079;DHT22;5592;49.234;7.268;2023-03-01T17:02:06;5.80;98.20
11079;DHT22;5592;49.234;7.268;2023-03-01T17:04:35;5.70;98.30
11079;DHT22;5592;49.234;7.268;2023-03-01T17:07:00;5.60;98.40
11079;DHT22;5592;49.234;7.268;2023-03-01T17:09:26;5.50;98.40
11079;DHT22;5592;49.234;7.268;2023-03-01T17:11:51;5.50;98.80
11079;DHT22;5592;49.234;7.268;2023-03-01T17:14:17;5.50;98.40
11079;DHT22;5592;49.234;7.268;2023-03-01T17:16:43;5.50;98.60
11079;DHT22;5592;49.234;7.268;2023-03-01T17:19:09;5.50;98.50
11079;DHT22;5592;49.234;7.268;2023-03-01T17:21:36;5.40;98.90
11079;DHT22;5592;49.234;7.268;2023-03-01T17:24:02;5.40;98.90
11079;DHT22;5592;49.234;7.268;2023-03-01T17:26:28;5.30;99.10
11079;DHT22;5592;49.234;7.268;2023-03-01T17:28:55;5.30;99.50
11079;DHT22;5592;49.234;7.268;2023-03-01T17:31:21;5.20;99.70
11079;DHT22;5592;49.234;7.268;2023-03-01T17:33:47;5.10;99.90
11079;DHT22;5592;49.234;7.268;2023-03-01T17:36:14;5.10;99.90
11079;DHT22;5592;49.234;7.268;2023-03-01T17:38:40;5.00;99.90
11079;DHT22;5592;49.234;7.268;2023-03-01T17:41:06;5.00;99.90
11079;DHT22;5592;49.234;7.268;2023-03-01T17:43:31;4.90;99.90
11079;DHT22;5592;49.234;7.268;2023-03-01T17:45:59;4.80;99.90
11079;DHT22;5592;49.234;7.268;2023-03-01T17:48:25;4.60;99.90
11079;DHT22;5592;49.234;7.268;2023-03-01T17:50:51;4.50;99.90
11079;DHT22;5592;49.234;7.268;2023-03-01T17:53:17;4.50;99.90
11079;DHT22;5592;49.234;7.268;2023-03-01T17:55:43;4.50;99.90
11079;DHT22;5592;49.234;7.268;2023-03-01T17:58:12;4.50;99.90
11079;DHT22;5592;49.234;7.268;2023-03-01T18:00:38;4.60;99.90
11079;DHT22;5592;49.234;7.268;2023-03-01T18:03:04;4.50;99.90
11079;DHT22;5592;49.234;7.268;2023-03-01T18:05:35;4.50;99.90
11079;DHT22;5592;49.234;7.268;2023-03-01T18:08:01;4.30;99.90
11079;DHT22;5592;49.234;7.268;2023-03-01T18:10:26;4.20;99.90
11079;DHT22;5592;49.234;7.268;2023-03-01T18:12:52;4.10;99.90